KRKD/RKD METAR and TAF weather

Enter ICAO airport designator
Station Type Date Time Source
KRKD METAR 2020/01/27 10:56 UTC NOAA

KRKD 271056Z AUTO 25005KT CLR M02/M03 A2952 RMK AO2 SLP996 T10171028 PWINO FZRANO $


Station Type Date Time Source
KRKD Decoded METAR 2020/01/27 10:56 UTC NOAA

Rockland, Knox County Regional Airport, ME, United States (KRKD) 44-04N 069-06W
Jan 27, 2020 - 05:56 AM EST / 2020.01.27 1056 UTC
Wind: from the WSW (250 degrees) at 6 MPH (5 KT):0
Sky conditions: clear
Temperature: 28.9 F (-1.7 C)
Windchill: 23 F (-5 C):1
Dew Point: 27.0 F (-2.8 C)
Relative Humidity: 92%
Pressure (altimeter): 29.52 in. Hg (999 hPa)
ob: KRKD 271056Z AUTO 25005KT CLR M02/M03 A2952 RMK AO2 SLP996 T10171028 PWINO FZRANO
cycle: 11

Station Type Date Time Source
KRKD TAF 2020/01/27 06:33 UTC NOAA

TAF KRKD 270528Z 2706/2806 26006KT P6SM BKN050

Example: see airport list